Latest Weather Observations for Khancoban

IDN60801

Issued at 4:05 pm EDT Thursday 23 October 2014 (issued every 30 minutes, with the page automatically refreshed every 10 minutes)

About weather observations | Map of weather stations | Latest weather observations for NSW | Other Formats
Station Details ID: 072162 Name: KHANCOBAN AWS Lat: -36.23 Lon: 148.14 Height: 339.3 m
Data from the previous 72 hours. | See also: Recent months at Khancoban
Date/Time
EDT
Temp
°C
App
Temp
°C
Dew
Point
Rel
Hum
%
Delta-T
°C
Wind Press
QNH
hPa
Press
MSL
hPa
Rain
since 9 am
mm
Dir
 
Spd
km/h
Gust
km/h
Spd
kts
Gust
kts
23/04:00pm 29.2 27.1 11.3 33 10.4 NNW 13 15 7 8 1014.8 1014.6 0.0
23/03:30pm 29.8 28.8 10.4 30 11.2 NW 6 7 3 4 1015.0 1014.8 0.0
23/03:00pm 29.5 29.0 10.6 31 10.9 NNE 4 9 2 5 1015.4 1015.1 0.0
23/02:30pm 29.2 28.1 9.8 30 11.1 NNW 6 13 3 7 1015.9 1015.6 0.0
23/02:00pm 28.6 26.1 11.2 34 10.1 NW 15 19 8 10 1016.5 1016.2 0.0
23/01:30pm 28.2 26.9 14.8 44 8.2 NW 15 20 8 11 1016.8 1016.5 0.0
23/01:00pm 27.5 26.6 14.8 45 7.8 WNW 13 17 7 9 1017.2 1017.0 0.0
23/12:30pm 27.0 28.1 14.7 47 7.5 W 2 7 1 4 1017.4 1017.2 0.0
23/12:00pm 26.0 26.2 14.1 47 7.2 WSW 6 9 3 5 1017.8 1017.6 0.0
23/11:30am 24.7 25.6 13.9 51 6.4 WSW 2 9 1 5 1018.5 1018.2 0.0
23/11:00am 23.5 23.9 13.7 54 5.8 WNW 4 9 2 5 1018.8 1018.5 0.0
23/10:30am 22.9 23.0 13.9 57 5.3 W 6 9 3 5 1018.8 1018.5 0.0
23/10:00am 22.0 22.0 14.1 61 4.7 E 7 9 4 5 1019.0 1018.7 0.0
23/09:30am 20.1 19.9 14.7 71 3.2 NW 9 13 5 7 1019.3 1019.0 0.0
23/09:00am 18.8 19.5 15.5 81 2.0 NW 6 9 3 5 1019.2 1018.9 0.0
23/08:30am 17.2 17.9 16.1 93 0.7 NNW 7 9 4 5 1019.4 1019.1 0.0
23/08:00am 15.4 15.8 15.4 100 0.0 WSW 7 9 4 5 1019.5 1019.2 0.0
23/07:30am 14.4 15.1 14.4 100 0.0 ENE 4 7 2 4 1019.6 1019.3 0.0
23/07:00am 12.5 13.3 12.5 100 0.0 CALM 0 0 0 0 1019.4 1019.1 0.0
23/06:30am 13.3 13.0 13.3 100 0.0 SSE 7 9 4 5 1019.2 1018.9 0.0
23/06:00am 14.0 15.3 14.0 100 0.0 ENE 0 4 0 2 1019.1 1018.8 0.0
23/05:30am 14.1 15.4 14.1 100 0.0 CALM 0 6 0 3 1019.0 1018.7 0.0
23/05:00am 13.6 13.6 13.6 100 0.0 SE 6 7 3 4 1018.5 1018.2 0.0
23/04:30am 14.5 14.4 13.9 96 0.3 NW 7 15 4 8 1018.7 1018.4 0.0
23/04:00am 15.0 14.1 14.8 99 0.1 SSE 13 17 7 9 1018.8 1018.5 0.0
23/03:30am 15.4 15.4 14.3 93 0.6 E 7 13 4 7 1019.1 1018.8 0.0
23/03:00am 14.6 14.4 14.6 100 0.0 ENE 9 17 5 9 1019.7 1019.5 0.0
23/02:30am 14.6 14.4 14.6 100 0.0 NE 9 13 5 7 1018.6 1018.3 0.0
23/02:00am 13.9 14.0 13.9 100 0.0 SSE 6 7 3 4 1018.5 1018.2 0.0
23/01:30am 14.1 14.6 14.1 100 0.0 N 4 7 2 4 1019.1 1018.8 0.0
23/01:00am 13.3 14.0 13.3 100 0.0 ESE 2 7 1 4 1019.6 1019.3 0.0
23/12:30am 14.1 15.4 14.1 100 0.0 CALM 0 0 0 0 1019.7 1019.5 0.0
23/12:00am 14.3 15.7 14.3 100 0.0 NNE 0 0 0 0 1019.7 1019.5 0.0
 
Date/Time
EDT
Temp
°C
App
Temp
°C
Dew
Point
Rel
Hum
%
Delta-T
°C
Wind Press
QNH
hPa
Press
MSL
hPa
Rain
since 9 am
mm
Dir
 
Spd
km/h
Gust
km/h
Spd
kts
Gust
kts
22/11:30pm 14.2 15.5 14.2 100 0.0 CALM 0 0 0 0 1019.9 1019.7 0.0
22/11:00pm 14.3 15.6 14.1 99 0.1 CALM 0 0 0 0 1019.9 1019.7 0.0
22/10:30pm 15.1 16.4 15.1 100 0.0 N 2 6 1 3 1019.7 1019.5 0.0
22/10:00pm 15.3 16.8 14.7 96 0.3 CALM 0 0 0 0 1019.7 1019.5 0.0
22/09:30pm 15.0 15.5 14.0 94 0.6 NW 4 9 2 5 1019.6 1019.3 0.0
22/09:00pm 17.2 19.1 15.7 91 0.9 CALM 0 4 0 2 1019.6 1019.3 0.0
22/08:30pm 16.7 18.4 15.2 91 0.9 CALM 0 0 0 0 1019.1 1018.8 0.0
22/08:00pm 17.6 17.9 14.5 82 1.8 S 6 7 3 4 1018.7 1018.4 0.0
22/07:30pm 20.7 21.7 14.4 67 3.7 NNE 2 6 1 3 1018.5 1018.2 0.0
22/07:00pm 22.2 22.9 15.5 66 4.1 W 6 7 3 4 1018.1 1017.9 0.0
22/06:30pm 25.8 27.2 14.3 49 6.9 CALM 0 0 0 0 1018.1 1017.9 0.0
22/06:00pm 27.5 28.5 13.1 41 8.6 CALM 0 0 0 0 1018.2 1018.0 0.0
22/05:30pm 26.3 25.5 10.9 38 8.8 NW 6 9 3 5 1018.4 1018.1 0.0
22/05:00pm 27.4 27.1 11.4 37 9.3 W 4 9 2 5 1018.5 1018.2 0.0
22/04:30pm 26.9 27.0 14.0 45 7.8 NW 6 13 3 7 1018.7 1018.4 0.0
22/04:00pm 26.1 25.3 11.8 41 8.3 N 7 11 4 6 1019.1 1018.8 0.0
22/03:30pm 26.9 26.0 10.6 36 9.3 NW 6 11 3 6 1019.5 1019.2 0.0
22/03:00pm 26.1 25.3 11.8 41 8.3 WNW 7 13 4 7 1019.9 1019.7 0.0
22/02:30pm 25.4 24.9 12.6 45 7.5 W 7 11 4 6 1020.2 1020.0 0.0
22/02:00pm 24.8 23.6 11.7 44 7.5 ESE 9 13 5 7 1020.9 1020.7 0.0
22/01:30pm 24.7 24.9 13.0 48 6.9 ENE 4 7 2 4 1021.5 1021.2 0.0
22/01:00pm 24.1 23.7 12.4 48 6.8 SW 6 9 3 5 1022.0 1021.7 0.0
22/12:30pm 23.1 23.8 14.4 58 5.2 W 4 7 2 4 1022.5 1022.3 0.0
22/12:00pm 22.3 22.3 12.3 53 5.7 W 4 9 2 5 1023.1 1022.9 0.0
22/11:30am 21.4 22.4 14.3 64 4.2 S 2 7 1 4 1023.5 1023.3 0.0
22/11:00am 20.0 20.4 12.5 62 4.3 N 2 7 1 4 1024.2 1024.0 0.0
22/10:30am 18.7 19.6 14.0 74 2.7 WNW 2 7 1 4 1024.7 1024.4 0.0
22/10:00am 17.5 18.0 12.8 74 2.7 WNW 2 7 1 4 1025.2 1025.0 0.0
22/09:30am 16.5 17.2 12.3 76 2.3 CALM 0 6 0 3 1025.3 1025.1 0.0
22/09:00am 15.0 15.4 12.5 85 1.4 N 2 7 1 4 1025.3 1025.1 0.0
22/08:30am 12.6 13.4 12.6 100 0.0 CALM 0 0 0 0 1025.3 1025.1 0.0
22/08:00am 11.5 12.0 11.5 100 0.0 CALM 0 0 0 0 1025.1 1024.9 0.0
22/07:30am 9.7 9.7 9.7 100 0.0 CALM 0 0 0 0 1025.2 1025.0 0.0
22/07:00am 8.6 8.3 8.6 100 0.0 CALM 0 0 0 0 1024.8 1024.6 0.0
22/06:30am 8.3 7.9 8.3 100 0.0 CALM 0 0 0 0 1024.2 1024.0 0.0
22/06:00am 9.0 8.8 9.0 100 0.0 CALM 0 0 0 0 1023.8 1023.6 0.0
22/05:30am 8.8 8.5 8.8 100 0.0 CALM 0 0 0 0 1023.5 1023.3 0.0
22/05:00am 9.1 8.9 9.1 100 0.0 CALM 0 0 0 0 1023.6 1023.4 0.0
22/04:30am 9.7 9.7 9.7 100 0.0 CALM 0 0 0 0 1023.7 1023.5 0.0
22/04:00am 8.9 8.7 8.9 100 0.0 CALM 0 0 0 0 1023.8 1023.6 0.0
22/03:30am 9.5 9.4 9.5 100 0.0 CALM 0 0 0 0 1024.2 1024.0 0.0
22/03:00am 9.9 9.9 9.9 100 0.0 CALM 0 0 0 0 1024.6 1024.3 0.0
22/02:30am 10.0 10.1 10.0 100 0.0 CALM 0 4 0 2 1024.9 1024.7 0.0
22/02:00am 10.4 10.6 10.4 100 0.0 CALM 0 6 0 3 1025.3 1025.1 0.0
22/01:30am 10.6 10.4 10.6 100 0.0 E 2 7 1 4 1025.6 1025.4 0.0
22/01:00am 11.0 10.6 11.0 100 0.0 NE 4 7 2 4 1026.1 1025.9 0.0
22/12:30am 10.9 10.8 10.9 100 0.0 SSE 2 6 1 3 1026.4 1026.2 0.0
22/12:00am 11.7 11.8 11.5 99 0.1 SSE 2 7 1 4 1026.6 1026.4 0.0
 
Date/Time
EDT
Temp
°C
App
Temp
°C
Dew
Point
Rel
Hum
%
Delta-T
°C
Wind Press
QNH
hPa
Press
MSL
hPa
Rain
since 9 am
mm
Dir
 
Spd
km/h
Gust
km/h
Spd
kts
Gust
kts
21/11:30pm 12.2 12.3 11.6 96 0.3 SSE 2 7 1 4 1026.5 1026.3 0.0
21/11:00pm 12.4 12.2 11.9 97 0.3 W 4 6 2 3 1026.4 1026.2 0.0
21/10:30pm 13.2 12.9 12.6 96 0.3 NE 6 9 3 5 1026.4 1026.2 0.0
21/10:00pm 13.3 13.9 12.0 92 0.7 CALM 0 6 0 3 1026.3 1026.1 0.0
21/09:30pm 13.5 13.1 12.4 93 0.6 SSE 6 7 3 4 1026.1 1025.9 0.0
21/09:00pm 14.4 14.0 13.0 91 0.8 SE 7 11 4 6 1025.9 1025.7 0.0
21/08:30pm 15.8 16.6 12.4 80 1.9 CALM 0 0 0 0 1025.4 1025.2 0.0
21/08:00pm 16.6 16.1 12.2 75 2.4 WNW 6 7 3 4 1025.0 1024.8 0.0
21/07:30pm 17.4 16.9 12.1 71 3.0 S 6 9 3 5 1024.7 1024.4 0.0
21/07:00pm 21.3 21.2 12.2 56 5.2 WNW 4 7 2 4 1024.4 1024.2 0.0
21/06:30pm 24.1 25.1 13.3 51 6.4 CALM 0 0 0 0 1024.2 1024.0 0.0
21/06:00pm 24.7 25.0 10.9 42 7.8 CALM 0 6 0 3 1024.2 1024.0 0.0
21/05:30pm 24.5 24.1 13.1 49 6.7 NW 7 13 4 7 1024.3 1024.1 0.0
21/05:00pm 24.6 23.3 9.3 38 8.4 WNW 6 11 3 6 1024.4 1024.2 0.0
21/04:30pm 24.7 22.3 8.6 36 8.8 WNW 11 15 6 8 1024.6 1024.3 0.0
21/04:00pm 23.8 22.5 11.2 45 7.1 NW 9 17 5 9 1024.8 1024.6 0.0
21/03:30pm 23.9 21.3 7.9 36 8.6 NW 11 15 6 8 1025.1 1024.9 0.0
21/03:00pm 23.9 22.2 9.9 41 7.7 NW 9 17 5 9 1025.4 1025.2 0.0
21/02:30pm 23.3 21.9 11.0 46 6.9 NW 9 13 5 7 1025.8 1025.6 0.0
21/02:00pm 23.0 21.8 11.7 49 6.4 NW 9 15 5 8 1026.4 1026.2 0.0
21/01:30pm 22.3 21.0 11.4 50 6.2 NW 9 13 5 7 1026.9 1026.7 0.0
21/01:00pm 21.7 20.4 11.1 51 5.9 NW 9 13 5 7 1027.3 1027.2 0.0
21/12:30pm 21.2 20.3 11.2 53 5.6 WNW 7 13 4 7 1027.8 1027.6 0.0
21/12:00pm 20.6 20.7 12.6 60 4.6 WNW 4 7 2 4 1028.2 1028.0 0.0
21/11:30am 20.1 19.7 12.3 61 4.4 SSE 6 7 3 4 1028.6 1028.4 0.0
21/11:00am 18.5 17.5 10.3 59 4.4 W 6 9 3 5 1029.0 1028.8 0.0
21/10:30am 17.5 17.6 10.1 62 4.0 CALM 0 7 0 4 1029.1 1028.9 0.0
21/10:00am 16.9 17.0 10.1 64 3.6 CALM 0 0 0 0 1029.3 1029.1 0.0
21/09:30am 15.3 15.0 8.8 65 3.4 CALM 0 0 0 0 1029.3 1029.1 0.0
21/09:00am 14.2 14.2 9.8 75 2.3 CALM 0 0 0 0 1029.4 1029.2 0.0
21/08:30am 12.5 12.1 8.4 76 2.1 CALM 0 0 0 0 1029.4 1029.2 0.0
21/08:00am 10.9 11.1 10.6 98 0.2 CALM 0 0 0 0 1029.4 1029.2 0.0
21/07:30am 9.1 8.9 9.1 100 0.0 CALM 0 0 0 0 1029.1 1028.9 0.0
21/07:00am 7.5 6.9 7.5 100 0.0 CALM 0 6 0 3 1028.9 1028.7 0.0
21/06:30am 7.4 6.8 7.4 100 0.0 CALM 0 0 0 0 1028.5 1028.3 0.0
21/06:00am 7.6 7.0 7.6 100 0.0 CALM 0 0 0 0 1028.2 1028.0 0.0
21/05:30am 8.1 7.7 8.1 100 0.0 CALM 0 0 0 0 1027.8 1027.6 0.0
21/05:00am 7.8 6.0 7.8 100 0.0 SSE 7 7 4 4 1027.8 1027.6 0.0
21/04:30am 9.2 9.0 9.2 100 0.0 CALM 0 0 0 0 1027.5 1027.4 0.0
21/04:00am 9.5 9.4 9.4 99 0.1 CALM 0 6 0 3 1027.5 1027.4 0.0
21/03:30am 10.2 9.6 9.1 93 0.6 NE 2 7 1 4 1027.5 1027.4 0.0
21/03:00am 9.3 8.3 9.0 98 0.1 E 4 7 2 4 1027.5 1027.4 0.0
21/02:30am 9.9 8.7 9.6 98 0.2 E 6 7 3 4 1027.3 1027.2 0.0
21/02:00am 9.9 9.1 9.8 99 0.1 ESE 4 7 2 4 1027.4 1027.3 0.0
21/01:30am 10.1 9.2 9.3 95 0.4 ENE 4 6 2 3 1027.5 1027.4 0.0
21/01:00am 10.7 9.9 9.5 92 0.6 NE 4 7 2 4 1027.5 1027.4 0.0
21/12:30am 11.1 10.1 10.2 94 0.5 ENE 6 7 3 4 1027.5 1027.4 0.0
21/12:00am 11.9 11.1 9.5 85 1.2 NE 4 9 2 5 1027.5 1027.4 0.0
 
Date/Time
EDT
Temp
°C
App
Temp
°C
Dew
Point
Rel
Hum
%
Delta-T
°C
Wind Press
QNH
hPa
Press
MSL
hPa
Rain
since 9 am
mm
Dir
 
Spd
km/h
Gust
km/h
Spd
kts
Gust
kts
20/11:30pm 11.6 10.5 10.0 90 0.8 SE 6 7 3 4 1027.5 1027.4 0.0
20/11:00pm 12.4 11.1 10.1 86 1.2 SSE 7 9 4 5 1027.2 1027.1 0.0
20/10:30pm 12.5 11.0 9.3 81 1.6 S 7 11 4 6 1027.1 1026.9 0.0
20/10:00pm 15.3 13.4 9.0 66 3.3 S 9 15 5 8 1027.0 1026.8 0.0
20/09:30pm 15.4 13.5 9.1 66 3.3 SSE 9 15 5 8 1026.7 1026.5 0.0
20/09:00pm 16.6 14.6 8.8 60 4.1 SSE 9 17 5 9 1026.3 1026.1 0.0
20/08:30pm 17.1 15.3 9.3 60 4.1 ESE 9 13 5 7 1025.7 1025.5 0.0
20/08:00pm 18.8 16.8 8.7 52 5.3 SW 9 17 5 9 1025.1 1024.9 0.0
20/07:30pm 18.5 15.3 9.8 57 4.7 SSW 17 30 9 16 1024.1 1023.9 0.0
20/07:00pm 19.8 17.4 10.2 54 5.2 S 13 20 7 11 1023.4 1023.2 0.0
20/06:30pm 21.7 19.7 10.2 48 6.4 S 11 22 6 12 1023.0 1022.8 0.0
20/06:00pm 22.4 18.4 11.8 51 6.0 SW 24 32 13 17 1022.6 1022.4 0.0
20/05:30pm 24.6 21.5 12.2 46 7.2 SW 20 26 11 14 1022.7 1022.5 0.0
20/05:00pm 26.3 24.4 9.2 34 9.5 S 9 11 5 6 1022.5 1022.3 0.0
20/04:30pm 27.2 25.9 9.1 32 10.1 SW 6 7 3 4 1022.6 1022.4 0.0

Other Formats:

Comma delimited format used in spreadsheet applications
http://www.bom.gov.au/fwo/IDN60801/IDN60801.94919.axf

JavaScript Object Notation format (JSON) in row-major order
http://www.bom.gov.au/fwo/IDN60801/IDN60801.94919.json